• Join FlightAware (Why Join?)
  • Login
  • US Flag GB Flag 
04:52 EDT


 

Airport Tracker/Info


-or-


 

Live Flight TrackerFlight Track Log ✈ N501CP ✈ 06-Feb-2014 ✈ KAPF - KAPF

Flight Track Log - Related Links

Times and Time Zones

All times are in EST time to prevent confusion due to time zone crossing. See the N501CP flight status page for this flight to view local times or setup timezone preferences in your user account.

Time Position Orientation Groundspeed Altitude Reporting Facility
EST Latitude Longitude Course Direction KTS MPH feet Rate Location/Type
15:40 26.0539 -81.8400 144° Southeast 221 254 28,000  Level Miami Center
15:41 26.0433 -81.9042 260° West 221 254 10,200 -7,200 Descending Miami Center
15:42 26.0411 -81.9711 268° West 221 254 13,600 3,240 Climbing Miami Center
15:43 26.0344 -82.0425 264° West 221 254 16,700 2,880 Climbing Miami Center
15:44 26.1524 -81.7756 144° Southeast  Level Estimated
15:44 26.0294 -82.1278 266° West 241 277 19,400  Level Miami Center
15:45 26.0225 -82.2036 264° West 252 290 21,200 1,740 Climbing Miami Center
15:46 26.0153 -82.2842 264° West 258 297 22,900 2,040 Climbing Miami Center
15:47 26.0144 -82.3603 269° West 251 289 25,300 2,100 Climbing Miami Center
15:48 26.0411 -82.4286 293° West 241 277 27,200 1,320 Climbing Miami Center
15:49 26.0653 -82.5036 290° West 246 283 28,000 360 Climbing Miami Center
15:50 26.0869 -82.5903 286° West 270 311 28,000  Level Miami Center
15:51 26.1339 -82.6711 303° West 298 343 28,000 -1,200 Level Miami Center
15:52 26.2375 -82.6900 351° North 303 349 25,700 -2,400 Descending Miami Center
15:53 26.3153 -82.6222 38° Northeast 281 323 23,300 -2,400 Descending Miami Center
15:54 26.3139 -82.5017 91° East 279 321 21,000 -2,520 Descending Miami Center
15:55 26.3156 -82.3997 89° East 297 342 18,300 -2,700 Descending Miami Center
15:56 26.2964 -82.3039 103° East 311 358 15,600 -2,760 Descending Miami Center
15:57 26.2639 -82.2192 113° Southeast 306 352 12,800 -2,820 Descending Miami Center
15:58 26.2356 -82.1369 111° Southeast 288 331 10,000 -2,820 Descending Miami Center
15:59 26.2447 -82.0586 83° East 270 311 7,200 -2,820 Descending Miami Center
16:00 26.2539 -81.9781 83° East 270 311 4,400 -2,520 Descending Miami Center
16:01 26.2647 -81.9019 81° East 259 298 2,200 -1,200 Descending Miami Center
16:02 26.2503 -81.8389 104° East 224 258 2,000 -120 Descending Miami Center
16:03 26.2253 -81.7775 114° Southeast 219 252 2,000 -540 Level Miami Center
16:04 26.1969 -81.7533 143° Southeast 168 193 1,000 -1,020 Descending Miami Center
16:06 26.1500 -81.7667 204° Southwest  Level FlightAware Approximate
16:13 26.1524 -81.7756 204° Southwest  Level Estimated